createdAt,value
2023-01-20T00:03:53.926Z,99385.22
2023-01-20T00:06:21.882Z,99381.88
2023-01-20T00:08:51.577Z,99387.59
2023-01-20T00:11:21.024Z,99390.16
2023-01-20T00:16:57.266Z,99384.59
2023-01-20T00:22:27.505Z,99395.97
2023-01-20T00:24:54.934Z,99397.34
2023-01-20T00:27:23.682Z,99392.44
2023-01-20T00:29:52.103Z,99400.56
2023-01-20T00:35:22.578Z,99410.09
2023-01-20T00:37:50.055Z,99421.63
2023-01-20T00:40:17.964Z,99421.53
2023-01-20T00:42:46.722Z,99414.94
2023-01-20T00:48:16.060Z,99422.84
2023-01-20T00:50:43.644Z,99422.28
2023-01-20T00:53:11.163Z,99430.72
2023-01-20T00:55:38.569Z,99431.06
2023-01-20T01:00:56.128Z,99422.56
2023-01-20T01:03:23.746Z,99421.63
2023-01-20T01:05:51.241Z,99420.22
2023-01-20T01:08:18.633Z,99416.72
2023-01-20T01:13:38.387Z,99430.13
2023-01-20T01:19:05.598Z,99433.47
2023-01-20T01:21:33.121Z,99435.91
2023-01-20T01:24:00.549Z,99432.31
2023-01-20T01:26:28.117Z,99431.28
2023-01-20T01:31:56.899Z,99439.19
2023-01-20T01:34:24.583Z,99449.00
2023-01-20T01:36:52.012Z,99445.03
2023-01-20T01:39:19.462Z,99453.06
2023-01-20T01:44:37.329Z,99457.84
2023-01-20T01:47:06.399Z,99456.16
2023-01-20T01:49:34.116Z,99460.22
2023-01-20T01:52:03.506Z,99456.19
2023-01-20T01:57:20.198Z,99465.53
2023-01-20T01:59:47.722Z,99467.59
2023-01-20T02:02:17.239Z,99468.78
2023-01-20T02:04:50.993Z,99476.03
2023-01-20T02:10:18.126Z,99480.53
2023-01-20T02:12:49.448Z,99486.53
2023-01-20T02:15:17.587Z,99480.06
2023-01-20T02:17:55.020Z,99485.06
2023-01-20T02:23:31.461Z,99491.00
2023-01-20T02:29:34.162Z,99490.75
2023-01-20T02:35:12.945Z,99495.81
2023-01-20T02:37:48.056Z,99499.97
2023-01-20T02:40:25.263Z,99511.19
2023-01-20T02:43:00.831Z,99507.50
2023-01-20T02:48:29.663Z,99512.63
2023-01-20T02:51:02.266Z,99511.38
2023-01-20T02:53:38.285Z,99516.75
2023-01-20T02:56:06.108Z,99517.69
2023-01-20T03:01:43.239Z,99527.31
2023-01-20T03:07:16.246Z,99536.13
2023-01-20T03:09:48.019Z,99531.03
2023-01-20T03:12:18.688Z,99528.34
2023-01-20T03:14:46.200Z,99528.41
2023-01-20T03:20:13.243Z,99541.28
2023-01-20T03:22:42.071Z,99539.19
2023-01-20T03:25:10.773Z,99539.75
2023-01-20T03:27:38.432Z,99545.13
2023-01-20T03:32:54.538Z,99550.31
2023-01-20T03:35:22.106Z,99553.09
2023-01-20T03:37:51.303Z,99546.00
2023-01-20T03:40:19.036Z,99543.66
2023-01-20T03:45:47.487Z,99547.75
2023-01-20T03:51:15.077Z,99551.81
2023-01-20T03:53:46.872Z,99555.59
2023-01-20T03:56:18.246Z,99561.38
2023-01-20T03:58:48.614Z,99563.84
2023-01-20T04:04:20.393Z,99565.97
2023-01-20T04:06:49.190Z,99565.84
2023-01-20T04:09:21.363Z,99572.28
2023-01-20T04:11:48.792Z,99570.38
2023-01-20T04:17:18.535Z,99569.81
2023-01-20T04:19:45.976Z,99566.81
2023-01-20T04:22:16.880Z,99577.28
2023-01-20T04:24:50.642Z,99570.22
2023-01-20T04:30:22.192Z,99575.13
2023-01-20T04:35:52.518Z,99581.72
2023-01-20T04:38:20.067Z,99589.06
2023-01-20T04:40:50.193Z,99589.78
2023-01-20T04:43:18.524Z,99584.22
2023-01-20T04:48:48.613Z,99585.38
2023-01-20T04:51:16.108Z,99584.03
2023-01-20T04:53:43.546Z,99580.28
2023-01-20T04:56:16.274Z,99591.06
2023-01-20T05:01:32.789Z,99596.34
2023-01-20T05:04:00.270Z,99597.78
2023-01-20T05:06:27.688Z,99594.88
2023-01-20T05:08:55.117Z,99595.34
2023-01-20T05:14:13.268Z,99586.06
2023-01-20T05:16:40.807Z,99591.47
2023-01-20T05:19:08.261Z,99588.22
2023-01-20T05:21:35.689Z,99601.25
2023-01-20T05:27:01.641Z,99614.75
2023-01-20T05:29:30.414Z,99612.03
2023-01-20T05:31:57.861Z,99621.03
2023-01-20T05:34:25.440Z,99618.66
2023-01-20T05:39:41.510Z,99614.81
2023-01-20T05:42:08.929Z,99624.25
2023-01-20T05:44:37.720Z,99625.69
2023-01-20T05:47:05.317Z,99631.94
2023-01-20T05:52:29.013Z,99629.16
2023-01-20T05:54:56.437Z,99629.50
2023-01-20T05:57:25.141Z,99627.63
2023-01-20T05:59:55.519Z,99630.00
2023-01-20T06:05:30.389Z,99634.69
2023-01-20T06:11:00.752Z,99640.88
2023-01-20T06:13:28.246Z,99649.97
2023-01-20T06:18:48.476Z,99643.09
2023-01-20T06:24:11.092Z,99657.13
2023-01-20T06:26:38.492Z,99658.50
2023-01-20T06:29:05.963Z,99653.91
2023-01-20T06:31:33.437Z,99659.06
2023-01-20T06:36:50.954Z,99662.31
2023-01-20T06:39:18.375Z,99661.78
2023-01-20T06:41:46.310Z,99669.97
2023-01-20T06:44:13.873Z,99665.03
2023-01-20T06:49:29.978Z,99684.91
2023-01-20T06:51:58.729Z,99678.16
2023-01-20T06:54:27.056Z,99693.00
2023-01-20T06:56:54.508Z,99694.25
2023-01-20T07:02:10.944Z,99699.66
2023-01-20T07:04:38.493Z,99703.25
2023-01-20T07:07:07.259Z,99713.22
2023-01-20T07:09:34.682Z,99713.94
2023-01-20T07:14:55.151Z,99722.88
2023-01-20T07:20:21.550Z,99721.19
2023-01-20T07:22:50.486Z,99734.03
2023-01-20T07:25:17.911Z,99741.22
2023-01-20T07:27:45.345Z,99735.88
2023-01-20T07:33:05.442Z,99744.13
2023-01-20T07:35:32.985Z,99746.06
2023-01-20T07:38:01.771Z,99752.06
2023-01-20T07:40:29.167Z,99752.44
2023-01-20T07:45:45.622Z,99763.19
2023-01-20T07:48:13.043Z,99768.72
2023-01-20T07:50:40.469Z,99765.63
2023-01-20T07:53:09.255Z,99780.19
2023-01-20T07:58:39.665Z,99778.91
2023-01-20T08:01:08.914Z,99792.09
2023-01-20T08:03:36.474Z,99787.56
2023-01-20T08:06:04.454Z,99788.22
2023-01-20T08:11:35.889Z,99805.81
2023-01-20T08:14:03.339Z,99804.94
2023-01-20T08:16:30.784Z,99802.44
2023-01-20T08:18:58.502Z,99812.88
2023-01-20T08:24:28.573Z,99811.72
2023-01-20T08:26:57.356Z,99812.78
2023-01-20T08:29:24.818Z,99820.19
2023-01-20T08:31:52.361Z,99829.50
2023-01-20T08:37:17.618Z,99829.41
2023-01-20T08:39:45.032Z,99834.66
2023-01-20T08:42:13.844Z,99836.75
2023-01-20T08:44:41.321Z,99840.69
2023-01-20T08:50:00.122Z,99842.06
2023-01-20T08:55:27.538Z,99848.34
2023-01-20T08:57:56.320Z,99850.78
2023-01-20T09:00:24.514Z,99853.16
2023-01-20T09:02:52.033Z,99848.84
2023-01-20T09:08:19.701Z,99846.88
2023-01-20T09:10:47.562Z,99855.03
2023-01-20T09:13:16.335Z,99854.72
2023-01-20T09:15:43.827Z,99857.53
2023-01-20T09:21:13.587Z,99853.41
2023-01-20T09:23:42.679Z,99853.53
2023-01-20T09:26:10.603Z,99855.56
2023-01-20T09:28:39.327Z,99862.22
2023-01-20T09:34:09.575Z,99858.69
2023-01-20T09:36:37.021Z,99863.19
2023-01-20T09:39:22.314Z,99868.44
2023-01-20T09:42:08.027Z,99865.34
2023-01-20T09:44:45.817Z,99864.25
2023-01-20T09:47:28.596Z,99862.28
2023-01-20T09:53:06.487Z,99872.06
2023-01-20T09:55:41.138Z,99879.88
2023-01-20T09:58:14.971Z,99886.28
2023-01-20T10:00:47.809Z,99882.78
2023-01-20T10:06:02.897Z,99887.38
2023-01-20T10:11:32.204Z,99890.56
2023-01-20T10:14:05.251Z,99890.41
2023-01-20T10:16:38.842Z,99887.56
2023-01-20T10:19:11.328Z,99900.13
2023-01-20T10:24:44.978Z,99897.97
2023-01-20T10:27:12.463Z,99897.59
2023-01-20T10:29:42.327Z,99900.41
2023-01-20T10:32:17.065Z,99896.00
2023-01-20T10:37:44.109Z,99892.50
2023-01-20T10:43:14.295Z,99896.09
2023-01-20T10:45:53.440Z,99893.59
2023-01-20T10:48:30.300Z,99894.69
2023-01-20T10:50:59.911Z,99901.75
2023-01-20T10:56:34.587Z,99906.09
2023-01-20T10:59:05.180Z,99906.41
2023-01-20T11:01:32.708Z,99896.53
2023-01-20T11:04:01.484Z,99908.75
2023-01-20T11:09:32.626Z,99905.91
2023-01-20T11:15:18.855Z,99906.47
2023-01-20T11:17:47.449Z,99905.38
2023-01-20T11:20:21.200Z,99916.28
2023-01-20T11:22:50.181Z,99904.41
2023-01-20T11:28:18.680Z,99919.13
2023-01-20T11:30:51.978Z,99918.16
2023-01-20T11:33:22.078Z,99927.19
2023-01-20T11:36:01.592Z,99932.97
2023-01-20T11:41:06.387Z,99944.72
2023-01-20T11:46:37.198Z,99936.34
2023-01-20T11:49:15.751Z,99937.19
2023-01-20T11:51:51.464Z,99943.13
2023-01-20T11:54:21.109Z,99942.00
2023-01-20T11:59:49.465Z,99947.34
2023-01-20T12:02:24.430Z,99956.66
2023-01-20T12:05:04.250Z,99949.69
2023-01-20T12:07:36.262Z,99959.41
2023-01-20T12:12:50.765Z,99956.09
2023-01-20T12:18:20.105Z,99969.78
2023-01-20T12:20:55.700Z,99963.94
2023-01-20T12:23:35.284Z,99971.53
2023-01-20T12:26:04.491Z,99973.59
2023-01-20T12:31:23.794Z,99980.53
2023-01-20T12:33:52.664Z,99982.22
2023-01-20T12:36:35.960Z,99981.06
2023-01-20T12:39:21.573Z,99986.38
2023-01-20T12:44:33.223Z,99990.66
2023-01-20T12:50:19.663Z,99992.53
2023-01-20T12:52:55.845Z,99998.56
2023-01-20T12:55:31.944Z,99999.72
2023-01-20T12:58:04.933Z,99998.59
2023-01-20T13:03:53.773Z,100005.66
2023-01-20T13:09:42.000Z,100009.22
2023-01-20T13:15:23.236Z,100018.50
2023-01-20T13:18:08.485Z,100017.66
2023-01-20T13:20:40.471Z,100016.06
2023-01-20T13:23:10.776Z,100023.78
2023-01-20T13:28:56.600Z,100025.56
2023-01-20T13:34:36.533Z,100025.19
2023-01-20T13:37:24.719Z,100035.81
2023-01-20T13:39:54.266Z,100044.13
2023-01-20T13:42:29.955Z,100038.69
2023-01-20T13:47:53.380Z,100049.47
2023-01-20T13:53:29.247Z,100055.56
2023-01-20T13:56:25.554Z,100059.66
2023-01-20T13:58:53.230Z,100063.69
2023-01-20T14:01:20.704Z,100068.50
2023-01-20T14:06:45.994Z,100073.97
2023-01-20T14:09:20.198Z,100082.25
2023-01-20T14:11:50.419Z,100076.75
2023-01-20T14:14:20.261Z,100083.34
2023-01-20T14:17:08.251Z,100085.50
2023-01-20T14:19:36.185Z,100081.47
2023-01-20T14:25:03.456Z,100092.44
2023-01-20T14:27:33.495Z,100095.41
2023-01-20T14:30:16.067Z,100092.63
2023-01-20T14:32:43.779Z,100092.00
2023-01-20T14:38:19.004Z,100094.28
2023-01-20T14:40:49.949Z,100102.84
2023-01-20T14:43:19.417Z,100097.84
2023-01-20T14:45:49.411Z,100111.81
2023-01-20T14:51:15.422Z,100117.91
2023-01-20T14:56:48.498Z,100119.34
2023-01-20T14:59:19.824Z,100126.06
2023-01-20T15:01:52.279Z,100132.31
2023-01-20T15:04:19.936Z,100138.59
2023-01-20T15:09:36.886Z,100139.28
2023-01-20T15:12:42.451Z,100144.69
2023-01-20T15:15:28.685Z,100145.06
2023-01-20T15:18:16.758Z,100154.78
2023-01-20T15:20:46.421Z,100148.22
2023-01-20T15:23:22.871Z,100154.00
2023-01-20T15:28:49.920Z,100163.72
2023-01-20T15:31:18.104Z,100175.88
2023-01-20T15:33:45.700Z,100172.66
2023-01-20T15:36:21.710Z,100188.28
2023-01-20T15:41:57.478Z,100189.19
2023-01-20T15:47:30.836Z,100194.19
2023-01-20T15:49:58.396Z,100197.91
2023-01-20T15:52:25.930Z,100208.34
2023-01-20T15:54:53.348Z,100206.84
2023-01-20T16:00:18.578Z,100215.63
2023-01-20T16:02:46.260Z,100219.81
2023-01-20T16:05:17.189Z,100213.63
2023-01-20T16:07:46.890Z,100230.63
2023-01-20T16:13:16.890Z,100235.38
2023-01-20T16:15:45.640Z,100242.94
2023-01-20T16:18:15.301Z,100255.59
2023-01-20T16:20:43.877Z,100260.34
2023-01-20T16:26:20.003Z,100266.63
2023-01-20T16:28:47.465Z,100273.84
2023-01-20T16:31:16.318Z,100281.59
2023-01-20T16:33:44.234Z,100281.34
2023-01-20T16:39:01.595Z,100296.41
2023-01-20T16:44:29.580Z,100297.25
2023-01-20T16:47:00.054Z,100313.50
2023-01-20T16:49:27.481Z,100323.13
2023-01-20T16:51:54.899Z,100318.66
2023-01-20T16:57:11.334Z,100334.56
2023-01-20T16:59:38.773Z,100331.19
2023-01-20T17:02:07.565Z,100339.78
2023-01-20T17:04:35.385Z,100339.34
2023-01-20T17:10:06.186Z,100343.78
2023-01-20T17:12:33.583Z,100352.28
2023-01-20T17:15:01.046Z,100358.13
2023-01-20T17:17:29.829Z,100367.28
2023-01-20T17:22:59.570Z,100366.03
2023-01-20T17:25:26.995Z,100373.97
2023-01-20T17:27:54.453Z,100379.06
2023-01-20T17:30:24.527Z,100386.06
2023-01-20T17:35:57.405Z,100387.38
2023-01-20T17:38:24.931Z,100383.63
2023-01-20T17:40:52.447Z,100383.75
2023-01-20T17:43:20.009Z,100392.84
2023-01-20T17:48:45.418Z,100408.72
2023-01-20T17:54:12.548Z,100411.38
2023-01-20T17:56:40.004Z,100414.09
2023-01-20T17:59:07.429Z,100406.75
2023-01-20T18:01:34.949Z,100426.28
2023-01-20T18:06:54.919Z,100433.19
2023-01-20T18:09:22.373Z,100437.66
2023-01-20T18:11:49.800Z,100438.41
2023-01-20T18:14:17.313Z,100448.56
2023-01-20T18:19:35.494Z,100456.41
2023-01-20T18:22:06.864Z,100459.59
2023-01-20T18:24:34.362Z,100460.16
2023-01-20T18:27:01.840Z,100460.06
2023-01-20T18:32:31.605Z,100471.16
2023-01-20T18:34:59.006Z,100473.19
2023-01-20T18:39:56.672Z,100480.16
2023-01-20T18:45:12.568Z,100487.56
2023-01-20T18:47:39.969Z,100492.69
2023-01-20T18:50:08.009Z,100490.91
2023-01-20T18:52:36.779Z,100498.75
2023-01-20T18:58:08.432Z,100510.91
2023-01-20T19:00:36.094Z,100514.91
2023-01-20T19:03:03.735Z,100516.19
2023-01-20T19:05:32.396Z,100518.81
2023-01-20T19:11:05.526Z,100527.41
2023-01-20T19:13:33.481Z,100526.34
2023-01-20T19:16:01.028Z,100530.69
2023-01-20T19:18:28.748Z,100537.53
2023-01-20T19:23:49.481Z,100535.31
2023-01-20T19:29:19.032Z,100544.81
2023-01-20T19:31:46.576Z,100555.13
2023-01-20T19:34:14.093Z,100560.47
2023-01-20T19:36:42.797Z,100558.00
2023-01-20T19:42:10.826Z,100571.50
2023-01-20T19:44:38.250Z,100576.69
2023-01-20T19:47:05.771Z,100582.88
2023-01-20T19:49:33.287Z,100584.34
2023-01-20T19:55:03.523Z,100578.53
2023-01-20T19:57:32.285Z,100588.41
2023-01-20T19:59:59.698Z,100592.78
2023-01-20T20:02:28.097Z,100597.47
2023-01-20T20:07:44.521Z,100601.78
2023-01-20T20:10:12.059Z,100610.13
2023-01-20T20:12:41.261Z,100612.56
2023-01-20T20:15:10.798Z,100618.75
2023-01-20T20:20:36.738Z,100621.03
2023-01-20T20:23:04.148Z,100624.78
2023-01-20T20:25:31.690Z,100622.75
2023-01-20T20:27:59.152Z,100624.53
2023-01-20T20:33:17.566Z,100636.28
2023-01-20T20:35:45.082Z,100639.03
2023-01-20T20:38:12.541Z,100641.94
2023-01-20T20:40:39.980Z,100638.19
2023-01-20T20:46:07.389Z,100653.41
2023-01-20T20:48:37.379Z,100649.44
2023-01-20T20:51:08.974Z,100657.41
2023-01-20T20:53:36.588Z,100651.94
2023-01-20T20:59:01.835Z,100656.94
2023-01-20T21:04:43.922Z,100674.72
2023-01-20T21:07:11.886Z,100673.31
2023-01-20T21:09:40.518Z,100672.38
2023-01-20T21:12:08.481Z,100676.59
2023-01-20T21:17:34.524Z,100675.94
2023-01-20T21:20:03.760Z,100688.34
2023-01-20T21:22:31.256Z,100695.63
2023-01-20T21:24:58.702Z,100698.38
2023-01-20T21:30:28.528Z,100697.59
2023-01-20T21:32:56.019Z,100700.84
2023-01-20T21:35:24.874Z,100705.25
2023-01-20T21:37:52.262Z,100697.66
2023-01-20T21:43:32.399Z,100712.28
2023-01-20T21:49:16.136Z,100717.16
2023-01-20T21:52:02.683Z,100717.91
2023-01-20T21:54:31.853Z,100727.50
2023-01-20T21:56:59.826Z,100732.72
2023-01-20T22:02:18.072Z,100729.44
2023-01-20T22:07:48.256Z,100733.31
2023-01-20T22:10:16.082Z,100743.31
2023-01-20T22:12:43.624Z,100732.97
2023-01-20T22:15:11.825Z,100742.25
2023-01-20T22:20:29.295Z,100747.41
2023-01-20T22:22:58.027Z,100750.19
2023-01-20T22:25:25.421Z,100759.88
2023-01-20T22:27:52.810Z,100763.59
2023-01-20T22:33:08.576Z,100757.72
2023-01-20T22:35:36.007Z,100770.25
2023-01-20T22:38:04.873Z,100778.28
2023-01-20T22:40:34.184Z,100785.38
2023-01-20T22:46:04.982Z,100793.03
2023-01-20T22:48:33.353Z,100788.41
2023-01-20T22:51:03.298Z,100799.28
2023-01-20T22:53:32.407Z,100808.22
2023-01-20T22:58:59.331Z,100817.84
2023-01-20T23:01:28.696Z,100808.56
2023-01-20T23:03:57.211Z,100811.25
2023-01-20T23:06:25.499Z,100816.59
2023-01-20T23:11:52.895Z,100822.94
2023-01-20T23:17:30.083Z,100824.75
2023-01-20T23:19:58.364Z,100823.44
2023-01-20T23:22:25.827Z,100832.94
2023-01-20T23:24:53.261Z,100840.09
2023-01-20T23:30:12.073Z,100840.34
2023-01-20T23:32:39.598Z,100843.47
2023-01-20T23:35:07.535Z,100844.34
2023-01-20T23:37:34.969Z,100848.97
2023-01-20T23:43:00.523Z,100860.41
2023-01-20T23:45:29.406Z,100864.00
2023-01-20T23:47:57.029Z,100866.91
2023-01-20T23:50:24.461Z,100864.22
2023-01-20T23:55:50.490Z,100858.69
2023-01-20T23:58:17.970Z,100868.75
